createdAt,value
2023-07-08T15:06:20.205Z,38.10
2023-07-08T15:07:20.151Z,38.07
2023-07-08T15:08:20.121Z,38.20
2023-07-08T15:09:20.077Z,38.29
2023-07-08T15:10:20.058Z,38.36
2023-07-08T15:11:20.017Z,38.51
2023-07-08T15:12:19.972Z,38.60
2023-07-08T15:13:19.950Z,38.60
2023-07-08T15:15:19.872Z,38.53
2023-07-08T15:16:19.837Z,38.62
2023-07-08T15:21:34.937Z,38.39
2023-07-08T15:22:34.875Z,38.41
2023-07-08T15:23:34.857Z,38.36
2023-07-08T15:27:01.424Z,38.36
2023-07-08T15:32:58.971Z,38.44
2023-07-08T15:33:58.885Z,38.53
2023-07-08T15:34:58.853Z,38.42
2023-07-08T15:35:58.816Z,38.42
2023-07-08T15:36:58.818Z,38.38
2023-07-08T15:37:58.752Z,38.38
2023-07-08T15:40:02.222Z,38.36
2023-07-08T15:43:28.933Z,38.25
2023-07-08T15:44:28.683Z,38.27
2023-07-08T15:45:28.649Z,38.20
2023-07-08T15:47:28.629Z,38.09
2023-07-08T15:48:28.547Z,38.05
2023-07-08T15:49:28.543Z,38.09
2023-07-08T15:50:28.483Z,38.00
2023-07-08T15:51:32.282Z,37.85
2023-07-08T15:52:28.434Z,37.97
2023-07-08T15:53:28.378Z,37.85
2023-07-08T15:54:28.346Z,37.91
2023-07-08T15:55:28.310Z,37.88
2023-07-08T15:56:28.285Z,37.71
2023-07-08T15:57:28.255Z,37.78
2023-07-08T15:58:28.210Z,37.63
2023-07-08T15:59:28.173Z,37.61
2023-07-08T16:02:26.809Z,37.40
2023-07-08T16:03:25.126Z,37.41
2023-07-08T16:04:24.910Z,37.36
2023-07-08T16:05:24.854Z,37.31
2023-07-08T16:06:24.823Z,37.25
2023-07-08T16:07:24.789Z,37.29
2023-07-08T16:08:26.380Z,37.28
2023-07-08T16:09:24.722Z,37.18
2023-07-08T16:10:24.687Z,37.19
2023-07-08T16:11:24.652Z,37.18
2023-07-08T16:12:24.622Z,37.15
2023-07-08T16:13:27.413Z,37.10
2023-07-08T16:14:27.214Z,37.00
2023-07-08T16:15:24.529Z,36.91
2023-07-08T16:16:24.560Z,36.82
2023-07-08T16:17:24.471Z,36.47
2023-07-08T16:18:24.415Z,36.16
2023-07-08T16:20:24.357Z,35.87
2023-07-08T16:21:24.317Z,35.63
2023-07-08T16:22:24.279Z,35.63
2023-07-08T16:23:24.241Z,35.45
2023-07-08T16:24:24.230Z,35.35
2023-07-08T16:26:27.605Z,35.13
2023-07-08T16:27:27.557Z,34.97
2023-07-08T16:28:27.534Z,34.76
2023-07-08T16:29:27.487Z,34.65
2023-07-08T16:30:27.458Z,34.51
2023-07-08T16:31:27.433Z,34.46
2023-07-08T16:34:59.012Z,34.03
2023-07-08T16:35:58.989Z,33.94
2023-07-08T16:36:58.949Z,33.94
2023-07-08T16:37:58.910Z,33.79
2023-07-08T16:38:59.225Z,33.65
2023-07-08T16:39:58.897Z,33.69
2023-07-08T16:40:59.118Z,33.55
2023-07-08T16:41:58.786Z,33.53
2023-07-08T16:42:58.724Z,33.45
2023-07-08T16:43:58.726Z,33.45
2023-07-08T16:44:58.676Z,33.42
2023-07-08T16:45:58.636Z,33.36
2023-07-08T16:46:58.811Z,33.19
2023-07-08T16:47:58.563Z,33.19
2023-07-08T16:48:58.513Z,33.16
2023-07-08T16:49:58.544Z,33.16
2023-07-08T16:50:58.686Z,33.17
2023-07-08T16:51:58.409Z,33.09
2023-07-08T17:29:33.817Z,34.82
2023-07-08T17:30:33.763Z,34.98
2023-07-08T17:31:46.070Z,35.10
2023-07-08T17:32:33.776Z,34.86
2023-07-08T17:33:33.670Z,34.76
2023-07-08T17:34:33.628Z,34.66
2023-07-08T17:35:33.585Z,34.35
2023-07-08T17:36:33.570Z,34.06
2023-07-08T17:37:33.512Z,33.95
2023-07-08T17:38:33.480Z,33.98
2023-07-08T17:39:33.444Z,33.98
2023-07-08T17:40:33.412Z,33.94
2023-07-08T17:41:33.383Z,33.92
2023-07-08T17:42:33.350Z,33.92
2023-07-08T17:43:33.307Z,34.02
2023-07-08T17:44:33.287Z,34.10
2023-07-08T17:45:33.262Z,34.22
2023-07-08T17:46:33.239Z,34.22
2023-07-08T17:47:33.219Z,34.13
2023-07-08T17:49:33.103Z,33.81
2023-07-08T17:50:33.069Z,33.57
2023-07-08T17:51:33.033Z,33.45
2023-07-08T17:52:33.001Z,33.22
2023-07-08T17:53:32.965Z,33.01
2023-07-08T17:54:32.967Z,32.94
2023-07-08T17:55:32.907Z,32.79
2023-07-08T17:56:32.857Z,32.68
2023-07-08T17:57:32.837Z,32.49
2023-07-08T17:58:32.792Z,32.35
2023-07-08T17:59:32.758Z,32.22
2023-07-08T18:00:32.726Z,32.17
2023-07-08T18:01:32.753Z,32.09
2023-07-08T18:02:32.713Z,31.90
2023-07-08T18:03:32.659Z,31.85
2023-07-08T18:04:32.581Z,31.72
